Terminal Aerodrome Forecast
Issued by NWS Wilmington, OH

Home | Current Version | Previous Version | Text Only | Print | Product List | Glossary On
Versions: 1 2 3 4 5 6 7 8 9 10 11 12 13 14 15 16 17 18
000
FTUS41 KILN 281100
TAFILN
TAF
KILN 281125Z 2812/2912 VRB02KT 5SM BR SKC
     FM281400 14005KT P6SM SCT250
     FM282200 14008KT P6SM OVC200
     FM291000 17010KT P6SM BKN060 OVC120=

USA.gov is the U.S. government's official web portal to all federal, state and local government web resources and services.